Time;durP1;ratioP1;P1;durP2;ratioP2;P2;SDS_P1;SDS_P2;PMS_P1;PMS_P2;Temp;Humidity;BMP_temperature;BMP_pressure;BME280_temperature;BME280_humidity;BME280_pressure;Samples;Min_cycle;Max_cycle;Signal;HPM_P1;HPM_P2
2023/08/30 00:00:46;;;;;;;9.02;5.38;;;17.10;72.10;;;;;;5021118;28;20512;-68
2023/08/30 00:03:13;;;;;;;11.25;5.65;;;17.20;72.10;;;;;;5017928;28;20056;-68
2023/08/30 00:05:40;;;;;;;12.00;6.10;;;17.20;72.00;;;;;;5022058;28;20038;-68
2023/08/30 00:08:05;;;;;;;10.35;5.93;;;17.10;71.90;;;;;;5048916;28;20033;-68
2023/08/30 00:10:31;;;;;;;9.88;5.82;;;17.20;71.90;;;;;;5003419;28;20030;-68
2023/08/30 00:12:57;;;;;;;9.38;5.40;;;17.10;71.90;;;;;;5018396;28;20080;-68
2023/08/30 00:15:23;;;;;;;9.63;5.57;;;17.10;71.90;;;;;;5019411;28;20450;-68
2023/08/30 00:17:51;;;;;;;9.52;5.65;;;17.10;71.90;;;;;;5016049;28;20034;-68
2023/08/30 00:20:20;;;;;;;9.70;6.20;;;17.10;71.90;;;;;;5014741;28;20022;-67
2023/08/30 00:22:48;;;;;;;10.10;5.80;;;17.10;71.80;;;;;;5022279;28;20416;-68
2023/08/30 00:25:15;;;;;;;9.52;5.80;;;17.10;71.70;;;;;;5046224;28;20475;-68
2023/08/30 00:27:41;;;;;;;9.80;5.85;;;17.10;71.70;;;;;;5023411;28;20101;-68
2023/08/30 00:30:09;;;;;;;10.15;5.43;;;17.10;71.60;;;;;;5014057;28;20474;-68
2023/08/30 00:32:35;;;;;;;11.45;6.10;;;17.10;71.50;;;;;;5018933;28;20045;-68
2023/08/30 00:35:01;;;;;;;10.48;5.80;;;17.10;71.40;;;;;;5045351;28;20022;-68
2023/08/30 00:37:27;;;;;;;9.30;5.70;;;17.20;71.40;;;;;;5018940;28;20026;-68
2023/08/30 00:39:53;;;;;;;10.20;5.97;;;17.10;71.30;;;;;;5019716;28;20052;-68
2023/08/30 00:42:19;;;;;;;9.75;5.63;;;17.10;71.30;;;;;;5017094;28;20033;-68
2023/08/30 00:44:45;;;;;;;10.23;5.75;;;17.10;71.40;;;;;;5040911;28;20418;-69
2023/08/30 00:47:11;;;;;;;10.52;5.75;;;17.10;71.40;;;;;;5048108;28;20014;-68
2023/08/30 00:49:37;;;;;;;10.73;5.80;;;17.10;71.40;;;;;;5032838;28;20021;-68
2023/08/30 00:52:08;;;;;;;9.45;5.47;;;17.10;71.40;;;;;;5018241;28;20025;-68
2023/08/30 00:54:34;;;;;;;;;;;17.00;71.40;;;;;;5032140;28;20407;-68
2023/08/30 00:57:01;;;;;;;9.52;5.75;;;17.00;71.50;;;;;;5018549;28;19910;-68
2023/08/30 00:59:27;;;;;;;11.73;5.72;;;16.90;71.60;;;;;;5019109;28;20442;-68
2023/08/30 01:01:55;;;;;;;10.10;5.45;;;16.90;71.60;;;;;;5021671;28;20030;-68
2023/08/30 01:04:22;;;;;;;11.40;5.10;;;16.90;71.60;;;;;;5022371;28;20025;-67
2023/08/30 01:06:48;;;;;;;10.45;6.28;;;16.80;71.60;;;;;;5024962;28;20025;-68
2023/08/30 01:09:15;;;;;;;9.05;5.80;;;16.80;71.70;;;;;;5046396;28;20152;-68
2023/08/30 01:12:12;;;;;;;10.52;5.95;;;16.80;71.80;;;;;;5050770;28;20030;-68
2023/08/30 01:14:45;;;;;;;9.38;5.47;;;16.80;71.80;;;;;;5013809;28;20034;-68
2023/08/30 01:17:14;;;;;;;11.05;6.32;;;16.70;71.90;;;;;;5016221;28;20363;-68
2023/08/30 01:20:15;;;;;;;9.65;5.88;;;16.70;72.00;;;;;;5015835;28;20037;-67
2023/08/30 01:22:57;;;;;;;9.23;5.45;;;16.70;71.90;;;;;;5040921;28;20034;-68
2023/08/30 01:25:55;;;;;;;9.70;5.78;;;16.60;72.00;;;;;;5031063;28;20192;-68
2023/08/30 01:28:24;;;;;;;8.48;5.10;;;16.60;72.00;;;;;;5049577;28;20083;-68
2023/08/30 01:30:54;;;;;;;9.05;5.50;;;16.60;72.10;;;;;;5014380;28;20022;-68
2023/08/30 01:33:20;;;;;;;9.57;5.55;;;16.50;72.20;;;;;;5035412;28;20311;-68
2023/08/30 01:35:47;;;;;;;9.57;6.03;;;16.50;72.20;;;;;;5020432;28;20454;-67
2023/08/30 01:38:14;;;;;;;10.88;5.40;;;16.50;72.10;;;;;;5032090;28;20382;-68
2023/08/30 01:40:42;;;;;;;9.45;6.00;;;16.50;72.20;;;;;;5013036;28;20046;-68
2023/08/30 01:43:10;;;;;;;8.85;5.43;;;16.50;72.10;;;;;;5011967;28;20678;-67
2023/08/30 01:45:40;;;;;;;8.98;5.72;;;16.50;72.10;;;;;;5015426;28;20447;-67
2023/08/30 01:48:10;;;;;;;10.65;5.68;;;16.50;72.10;;;;;;5017887;28;20080;-67
2023/08/30 01:50:40;;;;;;;12.25;5.97;;;16.40;72.10;;;;;;5016190;28;20025;-67
2023/08/30 01:53:06;;;;;;;10.68;6.28;;;16.40;72.10;;;;;;5021878;28;20021;-67
2023/08/30 01:55:32;;;;;;;9.50;5.50;;;16.40;72.20;;;;;;5017534;28;20029;-67
2023/08/30 01:57:58;;;;;;;9.32;5.88;;;16.30;72.20;;;;;;5015559;28;20071;-67
2023/08/30 02:00:24;;;;;;;11.38;5.65;;;16.40;72.30;;;;;;5017701;28;20061;-67
2023/08/30 02:02:50;;;;;;;9.10;6.07;;;16.30;72.40;;;;;;5046618;28;20022;-68
2023/08/30 02:05:15;;;;;;;9.98;6.07;;;16.30;72.50;;;;;;5044574;28;20037;-67
2023/08/30 02:07:46;;;;;;;10.00;6.28;;;16.30;72.50;;;;;;5043728;28;20025;-67
2023/08/30 02:10:20;;;;;;;9.55;5.63;;;16.30;72.50;;;;;;5020974;28;20119;-68
2023/08/30 02:12:53;;;;;;;9.35;6.55;;;16.30;72.40;;;;;;5046099;28;20026;-67
2023/08/30 02:15:19;;;;;;;10.45;6.40;;;16.30;72.40;;;;;;5015139;28;20030;-67
2023/08/30 02:17:46;;;;;;;10.10;5.93;;;16.40;72.50;;;;;;5018901;28;20160;-68
2023/08/30 02:20:12;;;;;;;9.35;5.50;;;16.40;72.50;;;;;;5015635;28;20473;-67
2023/08/30 02:22:38;;;;;;;10.07;5.80;;;16.40;72.50;;;;;;5018400;28;20026;-67
2023/08/30 02:25:07;;;;;;;10.48;5.75;;;16.40;72.60;;;;;;5045103;28;20168;-67
2023/08/30 02:27:34;;;;;;;9.75;5.75;;;16.40;72.70;;;;;;5016347;28;20089;-67
2023/08/30 02:30:02;;;;;;;10.75;5.75;;;16.40;72.80;;;;;;5016926;28;20121;-68
2023/08/30 02:32:28;;;;;;;9.43;5.95;;;16.50;72.90;;;;;;5014110;28;20026;-67
2023/08/30 02:34:54;;;;;;;8.85;5.63;;;16.50;72.90;;;;;;5016558;28;20084;-67
2023/08/30 02:37:20;;;;;;;9.45;6.20;;;16.50;72.90;;;;;;5015335;28;20034;-67
2023/08/30 02:39:46;;;;;;;9.57;5.72;;;16.50;72.90;;;;;;5019424;28;20068;-67
2023/08/30 02:42:11;;;;;;;8.98;5.63;;;16.50;73.00;;;;;;5042711;28;20060;-67
2023/08/30 02:44:37;;;;;;;9.93;6.25;;;16.50;73.00;;;;;;5028307;28;20583;-68
2023/08/30 02:47:03;;;;;;;9.65;6.22;;;16.60;73.00;;;;;;5042971;28;20029;-67
2023/08/30 02:49:29;;;;;;;12.10;6.78;;;16.60;72.90;;;;;;5014531;28;20030;-68
2023/08/30 02:51:55;;;;;;;8.85;6.00;;;16.60;72.80;;;;;;5012130;28;20113;-67
2023/08/30 02:54:22;;;;;;;13.77;6.25;;;16.60;72.70;;;;;;5031501;28;20448;-67
2023/08/30 02:56:48;;;;;;;9.32;6.00;;;16.60;72.60;;;;;;5017322;28;20462;-67
2023/08/30 02:59:14;;;;;;;9.40;6.07;;;16.60;72.60;;;;;;5013669;28;20033;-68
2023/08/30 03:01:40;;;;;;;12.73;6.68;;;16.60;72.50;;;;;;5016804;28;20029;-67
2023/08/30 03:04:07;;;;;;;11.40;6.60;;;16.60;72.60;;;;;;5037805;28;20044;-67
2023/08/30 03:06:34;;;;;;;9.45;5.82;;;16.60;72.60;;;;;;5017193;28;20030;-67
2023/08/30 03:09:00;;;;;;;10.93;5.97;;;16.60;72.60;;;;;;5032195;28;20022;-67
2023/08/30 03:11:26;;;;;;;10.52;6.53;;;16.60;72.70;;;;;;5037978;28;20032;-68
2023/08/30 03:13:55;;;;;;;11.20;6.28;;;16.60;72.70;;;;;;5015828;28;20030;-68
2023/08/30 03:16:21;;;;;;;10.27;6.47;;;16.60;72.80;;;;;;5048978;28;20389;-68
2023/08/30 03:18:47;;;;;;;11.00;6.90;;;16.60;72.80;;;;;;5019103;28;20025;-68
2023/08/30 03:21:13;;;;;;;12.05;6.80;;;16.60;72.90;;;;;;5031768;28;20084;-68
2023/08/30 03:23:41;;;;;;;9.68;6.07;;;16.60;72.90;;;;;;5033925;28;20037;-68
2023/08/30 03:26:13;;;;;;;10.80;6.97;;;16.60;73.00;;;;;;5041400;28;20026;-68
2023/08/30 03:28:40;;;;;;;10.90;6.63;;;16.60;72.90;;;;;;5019823;28;20021;-68
2023/08/30 03:31:20;;;;;;;10.73;6.70;;;16.60;72.90;;;;;;5019684;28;20037;-68
2023/08/30 03:33:49;;;;;;;12.30;6.72;;;16.60;72.80;;;;;;5004128;28;20082;-68
2023/08/30 03:36:17;;;;;;;13.10;7.10;;;16.60;72.80;;;;;;5013989;28;20018;-68
2023/08/30 03:38:44;;;;;;;10.95;7.00;;;16.60;72.80;;;;;;5018731;28;20117;-67
2023/08/30 03:41:11;;;;;;;12.10;7.70;;;16.50;72.70;;;;;;5020927;28;20418;-68
2023/08/30 03:43:37;;;;;;;11.18;7.68;;;16.50;72.70;;;;;;5038523;28;20026;-68
2023/08/30 03:46:03;;;;;;;10.40;6.57;;;16.50;72.50;;;;;;5035504;28;20018;-67
2023/08/30 03:48:30;;;;;;;13.35;7.93;;;16.60;72.50;;;;;;5026390;28;20128;-68
2023/08/30 03:50:56;;;;;;;12.68;7.97;;;16.50;72.30;;;;;;5018454;28;20026;-67
2023/08/30 03:53:22;;;;;;;11.40;7.25;;;16.50;72.20;;;;;;5021753;28;20108;-67
2023/08/30 03:55:48;;;;;;;14.25;8.50;;;16.50;72.80;;;;;;5021000;28;20039;-68
2023/08/30 03:58:14;;;;;;;11.65;7.82;;;16.40;72.10;;;;;;5019445;28;20607;-67
2023/08/30 04:00:40;;;;;;;11.02;7.63;;;16.40;72.20;;;;;;5004221;28;20243;-67
2023/08/30 04:03:09;;;;;;;11.68;7.50;;;16.40;72.30;;;;;;5025546;28;20087;-67
2023/08/30 04:05:35;;;;;;;12.88;7.93;;;16.30;72.30;;;;;;5022179;28;20090;-67
2023/08/30 04:08:03;;;;;;;12.93;7.90;;;16.30;72.30;;;;;;5020003;28;20033;-67
2023/08/30 04:10:28;;;;;;;12.95;7.88;;;16.30;72.40;;;;;;5018731;28;20072;-67
2023/08/30 04:12:54;;;;;;;13.02;7.75;;;16.30;72.40;;;;;;5017562;28;20053;-67
2023/08/30 04:15:20;;;;;;;13.18;8.52;;;16.20;72.40;;;;;;5033987;28;20025;-68
2023/08/30 04:17:46;;;;;;;11.15;7.60;;;16.20;72.40;;;;;;5022965;28;20462;-67
2023/08/30 04:20:12;;;;;;;11.20;7.40;;;16.10;72.40;;;;;;5030794;28;20028;-68
2023/08/30 04:22:37;;;;;;;13.50;8.52;;;16.10;72.50;;;;;;5020987;28;20037;-68
2023/08/30 04:25:04;;;;;;;12.98;8.48;;;16.10;72.50;;;;;;5024501;28;20021;-67
2023/08/30 04:27:30;;;;;;;13.25;8.52;;;16.00;72.50;;;;;;5024201;28;20063;-68
2023/08/30 04:29:56;;;;;;;12.25;7.30;;;16.00;72.50;;;;;;5041369;28;20120;-67
2023/08/30 04:32:22;;;;;;;11.93;8.23;;;16.00;72.60;;;;;;5027928;28;20021;-68
2023/08/30 04:34:48;;;;;;;13.07;8.02;;;16.00;72.60;;;;;;5026191;28;20028;-68
2023/08/30 04:37:14;;;;;;;14.27;9.02;;;15.90;72.70;;;;;;5027398;28;20040;-67
2023/08/30 04:39:41;;;;;;;12.43;8.18;;;15.90;72.80;;;;;;5029507;28;20403;-67
2023/08/30 04:42:06;;;;;;;14.13;8.07;;;15.90;72.80;;;;;;5027268;28;20076;-68
2023/08/30 04:44:32;;;;;;;12.20;7.15;;;15.90;72.90;;;;;;5013473;28;20088;-67
2023/08/30 04:46:58;;;;;;;13.43;8.23;;;15.90;73.00;;;;;;5058398;28;20030;-68
2023/08/30 04:49:27;;;;;;;13.13;8.70;;;15.80;73.00;;;;;;5025431;28;20025;-68
2023/08/30 04:51:53;;;;;;;12.63;8.50;;;15.80;73.00;;;;;;5057993;28;20446;-68
2023/08/30 04:54:18;;;;;;;12.95;7.93;;;15.80;73.00;;;;;;5028014;28;20083;-68
2023/08/30 04:56:44;;;;;;;13.00;8.52;;;15.80;73.00;;;;;;5034522;28;20044;-67
2023/08/30 04:59:10;;;;;;;12.05;8.00;;;15.80;73.10;;;;;;5032752;28;20112;-68
2023/08/30 05:01:44;;;;;;;12.75;8.00;;;15.70;73.10;;;;;;5033811;28;20465;-68
2023/08/30 05:04:10;;;;;;;14.25;8.95;;;15.80;73.20;;;;;;5034319;28;20030;-67
2023/08/30 05:06:36;;;;;;;13.80;9.15;;;15.70;73.20;;;;;;5034330;28;20144;-67
2023/08/30 05:09:02;;;;;;;13.82;9.15;;;15.70;73.20;;;;;;5029232;28;20105;-67
2023/08/30 05:11:28;;;;;;;13.13;8.48;;;15.70;73.20;;;;;;5030280;28;20026;-67
2023/08/30 05:13:55;;;;;;;13.70;8.88;;;15.70;73.20;;;;;;5035596;28;20036;-67
2023/08/30 05:16:21;;;;;;;13.57;8.30;;;15.60;73.10;;;;;;5034125;28;20056;-67
2023/08/30 05:18:47;;;;;;;12.80;8.20;;;15.60;73.20;;;;;;5026322;28;20529;-67
2023/08/30 05:21:14;;;;;;;12.20;8.15;;;15.60;73.20;;;;;;5029387;28;20120;-67
2023/08/30 05:23:42;;;;;;;12.80;8.25;;;15.60;73.30;;;;;;5007634;28;20037;-67
2023/08/30 05:26:14;;;;;;;13.82;8.30;;;15.60;73.30;;;;;;5020494;28;20073;-67
2023/08/30 05:28:39;;;;;;;14.10;8.68;;;15.70;73.30;;;;;;5028354;28;20044;-67
2023/08/30 05:31:06;;;;;;;12.25;8.45;;;15.70;73.30;;;;;;5026957;28;20469;-67
2023/08/30 05:33:52;;;;;;;13.52;8.90;;;15.70;73.40;;;;;;5045087;28;20034;-67
2023/08/30 05:36:47;;;;;;;13.05;8.88;;;15.70;73.40;;;;;;5043668;28;20083;-69
2023/08/30 05:39:36;;;;;;;14.70;8.35;;;15.80;73.40;;;;;;5026383;28;20045;-68
2023/08/30 05:42:02;;;;;;;15.65;9.32;;;15.80;73.30;;;;;;5055437;28;22213;-67
2023/08/30 05:44:28;;;;;;;14.13;9.15;;;15.80;73.30;;;;;;5027129;28;20021;-68
2023/08/30 05:46:54;;;;;;;15.52;9.57;;;15.90;73.30;;;;;;5034699;28;20112;-68
2023/08/30 05:49:20;;;;;;;14.55;9.60;;;15.90;73.20;;;;;;5033470;28;20014;-67
2023/08/30 05:51:47;;;;;;;12.85;8.73;;;16.00;73.10;;;;;;5035578;28;20018;-68
2023/08/30 05:54:13;;;;;;;12.75;8.50;;;16.00;73.00;;;;;;5027536;28;20116;-69
2023/08/30 05:56:40;;;;;;;13.75;8.18;;;16.00;73.00;;;;;;5041617;28;20033;-69
2023/08/30 05:59:05;;;;;;;13.13;9.10;;;16.10;73.00;;;;;;5051800;28;20393;-70
2023/08/30 06:01:31;;;;;;;15.48;9.85;;;16.20;73.00;;;;;;5035251;28;20370;-70
2023/08/30 06:03:57;;;;;;;14.23;9.50;;;16.20;72.80;;;;;;5019528;28;20018;-68
2023/08/30 06:06:23;;;;;;;16.27;9.10;;;16.30;72.80;;;;;;5024191;28;20025;-69
2023/08/30 06:08:48;;;;;;;13.48;9.38;;;16.30;72.70;;;;;;5024231;28;20053;-68
2023/08/30 06:11:15;;;;;;;12.98;8.98;;;16.40;72.70;;;;;;5026961;28;20112;-68
2023/08/30 06:13:41;;;;;;;15.20;8.52;;;16.50;72.70;;;;;;5028444;28;21874;-68
2023/08/30 06:16:07;;;;;;;14.10;8.98;;;16.50;72.60;;;;;;5039359;28;20029;-68
2023/08/30 06:18:33;;;;;;;14.38;8.73;;;16.60;72.50;;;;;;5025900;28;20022;-67
2023/08/30 06:20:59;;;;;;;12.25;8.60;;;16.80;72.30;;;;;;5028301;28;20034;-68
2023/08/30 06:23:25;;;;;;;12.63;8.73;;;16.90;71.90;;;;;;5027541;28;20036;-68
2023/08/30 06:25:57;;;;;;;13.98;9.00;;;17.10;71.60;;;;;;5024355;28;20033;-68
2023/08/30 06:28:23;;;;;;;12.40;8.57;;;17.20;71.40;;;;;;5023780;28;20108;-68
2023/08/30 06:30:49;;;;;;;14.10;9.73;;;17.20;71.20;;;;;;5029143;28;20041;-68
2023/08/30 06:33:14;;;;;;;13.75;9.40;;;17.20;71.20;;;;;;5025187;28;20029;-67
2023/08/30 06:35:41;;;;;;;12.88;9.38;;;17.20;71.40;;;;;;5026751;28;20091;-68
2023/08/30 06:38:07;;;;;;;13.35;9.50;;;17.10;71.40;;;;;;5030340;28;20130;-68
2023/08/30 06:40:33;;;;;;;13.18;9.40;;;17.10;71.50;;;;;;5030439;28;21534;-67
2023/08/30 06:42:59;;;;;;;13.18;8.88;;;17.10;71.60;;;;;;5026672;28;20038;-68
2023/08/30 06:45:25;;;;;;;15.32;8.50;;;17.00;71.60;;;;;;5030528;28;20431;-68
2023/08/30 06:47:52;;;;;;;15.95;8.77;;;17.00;71.80;;;;;;5025492;28;20032;-68
2023/08/30 06:50:18;;;;;;;15.02;9.38;;;17.00;71.80;;;;;;5026685;28;20044;-68
2023/08/30 06:52:44;;;;;;;12.70;9.55;;;17.00;71.90;;;;;;5029859;28;20037;-68
2023/08/30 06:55:10;;;;;;;13.18;9.48;;;17.10;72.10;;;;;;5031166;28;20029;-68
2023/08/30 06:57:35;;;;;;;14.52;9.02;;;17.10;72.20;;;;;;5027013;28;20459;-68
2023/08/30 07:00:07;;;;;;;13.85;9.13;;;17.10;72.20;;;;;;5026454;28;20037;-68
2023/08/30 07:02:38;;;;;;;14.68;9.27;;;17.10;72.10;;;;;;5034207;28;20420;-68
2023/08/30 07:05:04;;;;;;;12.10;8.52;;;17.10;72.10;;;;;;5040403;28;20024;-67
2023/08/30 07:07:31;;;;;;;13.27;9.10;;;17.10;72.00;;;;;;5036774;28;20032;-68
2023/08/30 07:09:57;;;;;;;12.43;8.82;;;17.10;72.00;;;;;;5035627;28;20057;-68
2023/08/30 07:12:23;;;;;;;12.95;8.70;;;17.10;72.10;;;;;;5037225;28;20032;-68
2023/08/30 07:14:49;;;;;;;12.73;8.55;;;17.20;72.20;;;;;;5042862;28;20034;-69
2023/08/30 07:17:14;;;;;;;14.70;9.55;;;17.20;72.20;;;;;;5037446;28;20041;-68
2023/08/30 07:19:40;;;;;;;12.52;8.80;;;17.20;72.30;;;;;;5028704;28;20025;-69
2023/08/30 07:22:06;;;;;;;13.43;8.80;;;17.20;72.40;;;;;;5037620;28;20037;-68
2023/08/30 07:24:31;;;;;;;14.23;9.00;;;17.20;72.70;;;;;;5036323;28;20036;-68
2023/08/30 07:26:57;;;;;;;12.50;8.32;;;17.20;72.90;;;;;;5036486;28;20362;-68
2023/08/30 07:29:23;;;;;;;13.07;8.82;;;17.20;73.00;;;;;;5027595;28;20160;-68
2023/08/30 07:31:51;;;;;;;13.63;8.40;;;17.20;73.30;;;;;;5036047;28;20034;-67
2023/08/30 07:34:17;;;;;;;12.77;8.48;;;17.20;73.60;;;;;;5029872;28;20062;-67
2023/08/30 07:36:42;;;;;;;16.05;8.73;;;17.20;73.90;;;;;;5036657;28;20029;-67
2023/08/30 07:39:09;;;;;;;13.30;8.35;;;17.10;74.20;;;;;;5024711;28;20029;-67
2023/08/30 07:41:35;;;;;;;12.65;8.20;;;17.10;74.40;;;;;;5034622;28;20081;-68
2023/08/30 07:44:01;;;;;;;13.15;8.02;;;17.10;74.80;;;;;;5036409;28;20056;-69
2023/08/30 07:46:27;;;;;;;12.35;8.00;;;17.00;75.00;;;;;;5036694;28;20060;-69
2023/08/30 07:48:52;;;;;;;12.23;7.82;;;17.00;75.20;;;;;;5025564;28;20034;-69
2023/08/30 07:51:18;;;;;;;11.65;8.07;;;17.00;75.40;;;;;;5025766;28;20409;-70
2023/08/30 07:53:44;;;;;;;12.80;7.85;;;17.00;75.60;;;;;;5023987;28;20033;-69
2023/08/30 07:56:09;;;;;;;11.45;7.20;;;16.90;75.70;;;;;;5025701;28;20410;-69
2023/08/30 07:58:35;;;;;;;15.02;7.55;;;16.90;75.70;;;;;;5025132;28;20420;-69
2023/08/30 08:01:01;;;;;;;13.13;7.97;;;16.90;75.90;;;;;;5028461;28;20044;-69
2023/08/30 08:03:27;;;;;;;11.48;6.97;;;16.90;76.10;;;;;;5015186;28;20029;-68
2023/08/30 08:05:53;;;;;;;12.15;7.32;;;16.90;76.30;;;;;;5025719;28;20321;-70
2023/08/30 08:08:19;;;;;;;11.45;7.22;;;16.80;76.30;;;;;;5026343;28;20084;-67
2023/08/30 08:10:44;;;;;;;12.80;7.30;;;16.80;76.50;;;;;;5023369;28;20041;-67
2023/08/30 08:13:12;;;;;;;13.25;7.82;;;16.80;76.60;;;;;;5021680;28;20030;-67
2023/08/30 08:15:38;;;;;;;12.07;7.55;;;16.80;76.70;;;;;;5031768;28;20040;-66
2023/08/30 08:18:04;;;;;;;13.65;7.65;;;16.80;76.80;;;;;;5023836;28;20455;-67
2023/08/30 08:20:30;;;;;;;12.40;6.93;;;16.80;76.90;;;;;;5016834;28;20026;-66
2023/08/30 08:22:56;;;;;;;10.68;6.97;;;16.80;76.90;;;;;;5024979;28;20364;-67
2023/08/30 08:25:23;;;;;;;11.07;7.03;;;16.70;77.10;;;;;;5028978;28;20041;-67
2023/08/30 08:27:50;;;;;;;11.50;6.85;;;16.70;77.30;;;;;;5033927;28;20049;-67
2023/08/30 08:30:16;;;;;;;12.75;7.13;;;16.70;77.30;;;;;;5035993;28;20033;-66
2023/08/30 08:32:45;;;;;;;12.75;6.70;;;16.70;77.50;;;;;;5030290;28;20439;-66
2023/08/30 08:35:11;;;;;;;10.70;6.47;;;16.70;77.60;;;;;;5034937;28;20140;-65
2023/08/30 08:37:36;;;;;;;11.40;7.15;;;16.70;77.60;;;;;;5042688;28;20033;-65
2023/08/30 08:40:08;;;;;;;11.85;6.40;;;16.70;77.70;;;;;;5043139;28;20111;-66
2023/08/30 08:42:35;;;;;;;10.38;6.65;;;16.80;77.80;;;;;;5030009;28;20033;-65
2023/08/30 08:45:03;;;;;;;11.55;6.07;;;16.80;77.70;;;;;;5035714;28;20332;-66
2023/08/30 08:47:32;;;;;;;12.30;6.82;;;16.80;77.60;;;;;;5035660;28;20048;-66
2023/08/30 08:49:59;;;;;;;11.80;6.82;;;16.80;77.80;;;;;;5035798;28;20025;-65
2023/08/30 08:52:25;;;;;;;11.25;6.75;;;16.80;77.80;;;;;;5028583;28;20068;-64
2023/08/30 08:54:52;;;;;;;11.40;6.88;;;16.80;77.80;;;;;;5015602;28;20034;-64
2023/08/30 08:57:19;;;;;;;9.95;6.82;;;16.80;78.00;;;;;;5023814;28;20068;-65
2023/08/30 08:59:45;;;;;;;11.05;6.78;;;16.80;78.00;;;;;;5020979;28;20053;-64
2023/08/30 09:02:15;;;;;;;10.93;7.25;;;16.70;78.00;;;;;;5018892;28;20053;-64
2023/08/30 09:04:41;;;;;;;11.02;7.10;;;16.70;78.20;;;;;;5016341;28;20045;-64
2023/08/30 09:07:07;;;;;;;11.30;7.65;;;16.70;78.40;;;;;;5014697;28;20018;-64
2023/08/30 09:09:34;;;;;;;10.35;7.75;;;16.80;78.50;;;;;;5033845;28;20045;-64
2023/08/30 09:12:00;;;;;;;9.52;6.47;;;16.70;78.50;;;;;;5032015;28;20030;-64
2023/08/30 09:14:25;;;;;;;10.68;7.00;;;16.70;78.50;;;;;;5035241;28;20032;-64
2023/08/30 09:17:00;;;;;;;11.05;7.05;;;16.70;78.60;;;;;;5030862;28;20042;-64
2023/08/30 09:19:26;;;;;;;11.85;7.43;;;16.70;78.80;;;;;;5034246;28;20061;-64
2023/08/30 09:21:53;;;;;;;11.35;7.45;;;16.70;78.80;;;;;;5042653;28;20086;-64
2023/08/30 09:24:19;;;;;;;12.45;7.82;;;16.70;78.90;;;;;;5036870;28;20039;-64
2023/08/30 09:26:49;;;;;;;12.05;7.53;;;16.70;78.90;;;;;;5015015;28;20462;-64
2023/08/30 09:29:17;;;;;;;13.70;8.68;;;16.70;79.10;;;;;;5014814;28;20117;-64
2023/08/30 09:31:43;;;;;;;12.70;8.30;;;16.70;79.10;;;;;;5014060;28;20037;-64
2023/08/30 09:34:11;;;;;;;10.65;6.68;;;16.70;79.20;;;;;;5021474;28;20049;-64
2023/08/30 09:36:41;;;;;;;10.68;7.18;;;16.70;79.20;;;;;;5033756;28;20044;-64
2023/08/30 09:39:14;;;;;;;9.45;5.70;;;16.80;79.40;;;;;;5033749;28;20037;-64
2023/08/30 09:41:48;;;;;;;9.38;6.03;;;16.70;79.40;;;;;;5016857;28;20405;-64
2023/08/30 09:44:15;;;;;;;9.30;5.97;;;16.80;79.40;;;;;;5031326;28;20103;-64
2023/08/30 09:46:52;;;;;;;9.48;5.90;;;16.80;79.40;;;;;;5034338;28;20450;-64
2023/08/30 09:49:25;;;;;;;9.63;5.85;;;16.80;79.60;;;;;;5033443;28;20468;-64
2023/08/30 09:51:53;;;;;;;9.50;5.97;;;16.80;79.50;;;;;;5017415;28;20482;-66
2023/08/30 09:54:23;;;;;;;10.60;6.00;;;16.80;79.60;;;;;;5025897;28;20474;-64
2023/08/30 09:56:52;;;;;;;9.38;5.70;;;16.90;79.80;;;;;;5031120;28;20037;-64
2023/08/30 09:59:19;;;;;;;9.02;5.68;;;16.90;79.80;;;;;;5034133;28;20119;-64
2023/08/30 10:01:48;;;;;;;9.95;5.47;;;16.90;79.90;;;;;;5037726;28;20029;-64
2023/08/30 10:04:15;;;;;;;9.02;5.30;;;17.00;80.00;;;;;;5039820;28;20022;-64
2023/08/30 10:06:41;;;;;;;9.70;5.82;;;17.00;79.90;;;;;;5034529;28;20096;-64
2023/08/30 10:09:08;;;;;;;10.30;6.13;;;17.10;79.90;;;;;;5034727;28;20049;-64
2023/08/30 10:11:35;;;;;;;8.38;5.15;;;17.10;80.00;;;;;;5040813;28;20067;-64
2023/08/30 10:14:04;;;;;;;8.73;5.38;;;17.10;80.00;;;;;;5035774;28;20036;-64
2023/08/30 10:16:43;;;;;;;8.98;5.75;;;17.20;80.00;;;;;;5040514;28;20030;-64
2023/08/30 10:19:17;;;;;;;9.63;5.43;;;17.20;80.00;;;;;;5029093;28;20172;-64
2023/08/30 10:21:50;;;;;;;9.15;5.43;;;17.20;80.00;;;;;;5020200;28;20389;-64
2023/08/30 10:24:19;;;;;;;8.75;5.55;;;17.30;80.10;;;;;;5033689;28;20029;-64
2023/08/30 10:26:47;;;;;;;9.20;5.95;;;17.30;80.70;;;;;;5043718;28;20027;-64
2023/08/30 10:29:16;;;;;;;10.75;6.22;;;17.30;80.10;;;;;;5029177;28;20036;-65
2023/08/30 10:31:42;;;;;;;8.75;5.47;;;17.40;80.20;;;;;;5026838;28;20030;-63
2023/08/30 10:34:19;;;;;;;9.85;5.78;;;17.40;80.20;;;;;;5019179;28;20506;-64
2023/08/30 10:36:45;;;;;;;9.40;5.85;;;17.50;80.30;;;;;;5040161;28;20437;-64
2023/08/30 10:39:14;;;;;;;11.75;6.38;;;17.60;80.30;;;;;;5035512;28;20037;-64
2023/08/30 10:41:57;;;;;;;9.77;6.10;;;17.60;80.30;;;;;;5030312;28;20042;-64
2023/08/30 10:44:23;;;;;;;9.93;5.85;;;17.70;80.30;;;;;;5032731;28;20076;-64
2023/08/30 10:46:54;;;;;;;10.73;7.03;;;17.70;80.30;;;;;;5053713;28;20040;-64
2023/08/30 10:49:20;;;;;;;9.38;6.05;;;17.70;80.30;;;;;;5019449;28;20339;-64
2023/08/30 10:51:54;;;;;;;9.25;6.35;;;17.70;80.20;;;;;;5023183;28;20393;-64
2023/08/30 10:54:20;;;;;;;9.27;6.63;;;17.80;80.30;;;;;;5023229;28;20033;-65
2023/08/30 10:56:52;;;;;;;9.90;6.95;;;17.90;80.20;;;;;;5026294;28;20029;-65
2023/08/30 10:59:19;;;;;;;9.43;6.60;;;18.00;80.20;;;;;;5019450;28;20033;-66
2023/08/30 11:01:47;;;;;;;9.68;7.07;;;18.10;80.20;;;;;;5033418;28;20042;-65
2023/08/30 11:04:14;;;;;;;10.30;7.13;;;18.20;80.20;;;;;;5023911;28;20029;-65
2023/08/30 11:06:43;;;;;;;9.73;7.13;;;18.20;80.20;;;;;;5024020;28;20346;-65
2023/08/30 11:09:10;;;;;;;9.38;7.03;;;18.30;80.30;;;;;;5027142;28;20026;-65
2023/08/30 11:11:40;;;;;;;12.30;8.13;;;18.30;80.20;;;;;;5022507;28;20414;-65
2023/08/30 11:14:08;;;;;;;10.82;7.78;;;18.40;80.20;;;;;;5026154;28;20028;-66
2023/08/30 11:16:35;;;;;;;12.07;7.72;;;18.40;80.40;;;;;;5032507;28;20120;-65
2023/08/30 11:19:03;;;;;;;9.98;7.15;;;18.50;80.20;;;;;;5032614;28;20109;-65
2023/08/30 11:21:30;;;;;;;11.25;7.90;;;18.60;80.00;;;;;;5033419;28;20033;-66
2023/08/30 11:23:56;;;;;;;9.75;7.65;;;18.70;80.00;;;;;;5036378;28;20026;-65
2023/08/30 11:26:22;;;;;;;10.43;7.50;;;18.70;80.00;;;;;;5036064;28;20066;-65
2023/08/30 11:28:51;;;;;;;11.18;8.73;;;18.60;80.10;;;;;;5036945;28;20103;-65
2023/08/30 11:31:22;;;;;;;11.70;8.30;;;18.60;80.20;;;;;;5036063;28;20085;-65
2023/08/30 11:33:55;;;;;;;11.00;8.80;;;18.50;80.40;;;;;;5023716;28;20132;-65
2023/08/30 11:36:22;;;;;;;11.05;8.45;;;18.50;81.20;;;;;;5035387;28;20086;-66
2023/08/30 11:38:52;;;;;;;10.02;7.85;;;18.50;80.60;;;;;;5032470;28;20037;-65
2023/08/30 11:41:20;;;;;;;12.98;8.50;;;18.40;80.70;;;;;;5036826;28;20049;-66
2023/08/30 11:43:48;;;;;;;10.00;7.32;;;18.40;80.70;;;;;;5036078;28;20048;-66
2023/08/30 11:46:13;;;;;;;10.02;6.55;;;18.40;80.60;;;;;;5036063;28;20033;-66
2023/08/30 11:48:42;;;;;;;10.30;6.55;;;18.40;80.60;;;;;;5034618;28;20351;-65
2023/08/30 11:51:08;;;;;;;10.38;6.82;;;18.50;80.50;;;;;;5035875;28;20056;-66
2023/08/30 11:53:35;;;;;;;8.70;5.90;;;18.70;80.20;;;;;;5019385;28;20469;-66
2023/08/30 11:56:01;;;;;;;9.73;5.55;;;18.90;79.60;;;;;;5037130;28;20390;-66
2023/08/30 11:58:27;;;;;;;8.95;5.53;;;19.20;79.20;;;;;;5035717;28;20034;-66
2023/08/30 12:00:54;;;;;;;8.48;5.35;;;19.40;78.60;;;;;;5036806;28;20095;-66
2023/08/30 12:03:20;;;;;;;7.93;4.75;;;19.70;78.00;;;;;;5036318;28;20036;-65
2023/08/30 12:05:47;;;;;;;8.52;4.68;;;20.00;77.40;;;;;;5035944;28;20109;-65
2023/08/30 12:08:39;;;;;;;8.63;4.78;;;20.00;76.90;;;;;;5034847;28;20028;-66
2023/08/30 12:11:05;;;;;;;8.63;4.68;;;20.00;76.60;;;;;;5047160;28;20396;-66
2023/08/30 12:13:34;;;;;;;7.95;4.07;;;20.00;76.40;;;;;;5033610;28;20080;-66
2023/08/30 12:16:01;;;;;;;8.57;3.65;;;20.00;76.00;;;;;;5026353;28;20036;-66
2023/08/30 12:18:37;;;;;;;7.18;3.70;;;19.90;75.90;;;;;;5034390;28;20036;-66
2023/08/30 12:21:04;;;;;;;6.78;3.25;;;19.80;75.80;;;;;;5036532;28;20084;-66
2023/08/30 12:23:32;;;;;;;7.50;3.97;;;19.70;75.80;;;;;;5035132;28;20022;-65
2023/08/30 12:26:04;;;;;;;8.02;3.40;;;19.60;75.90;;;;;;5036441;28;20411;-66
2023/08/30 12:28:31;;;;;;;6.38;3.17;;;19.50;75.90;;;;;;5034967;28;20500;-66
2023/08/30 12:30:58;;;;;;;8.13;3.55;;;19.40;75.80;;;;;;5035840;28;20117;-66
2023/08/30 12:33:28;;;;;;;7.60;2.95;;;19.30;75.60;;;;;;5027139;28;20057;-66
2023/08/30 12:35:54;;;;;;;7.85;2.92;;;19.30;75.40;;;;;;5031470;28;20087;-65
2023/08/30 12:38:20;;;;;;;7.35;2.70;;;19.20;75.30;;;;;;5036373;28;20037;-65
2023/08/30 12:40:51;;;;;;;7.00;2.70;;;19.20;75.00;;;;;;5019901;28;20038;-66
2023/08/30 12:43:17;;;;;;;7.18;2.88;;;19.20;74.70;;;;;;5018759;28;20061;-66